createdAt,value
2018-01-15T00:00:36.135Z,1008.38
2018-01-15T00:01:16.662Z,1008.27
2018-01-15T00:01:57.211Z,1008.3
2018-01-15T00:02:37.733Z,1008.28
2018-01-15T00:03:18.271Z,1008.27
2018-01-15T00:03:58.817Z,1008.29
2018-01-15T00:04:39.369Z,1008.27
2018-01-15T00:05:19.939Z,1008.26
2018-01-15T00:06:00.471Z,1008.26
2018-01-15T00:06:41.021Z,1008.26
2018-01-15T00:07:21.563Z,1008.25
2018-01-15T00:08:02.123Z,1008.25
2018-01-15T00:08:42.619Z,1008.23
2018-01-15T00:09:23.141Z,1008.19
2018-01-15T00:10:03.636Z,1008.18
2018-01-15T00:10:44.198Z,1008.2
2018-01-15T00:11:24.711Z,1008.24
2018-01-15T00:12:05.279Z,1008.21
2018-01-15T00:12:45.792Z,1008.22
2018-01-15T00:13:26.337Z,1008.25
2018-01-15T00:14:06.869Z,1008.24
2018-01-15T00:14:47.486Z,1008.25
2018-01-15T00:15:27.985Z,1008.21
2018-01-15T00:16:08.547Z,1008.23
2018-01-15T00:16:49.096Z,1008.24
2018-01-15T00:17:29.644Z,1008.23
2018-01-15T00:18:10.258Z,1008.26
2018-01-15T00:18:50.883Z,1008.21
2018-01-15T00:19:31.376Z,1008.21
2018-01-15T00:20:11.868Z,1008.24
2018-01-15T00:20:52.416Z,1008.23
2018-01-15T00:21:32.934Z,1008.2
2018-01-15T00:22:13.461Z,1008.23
2018-01-15T00:22:54.048Z,1008.25
2018-01-15T00:23:34.608Z,1008.27
2018-01-15T00:24:15.175Z,1008.31
2018-01-15T00:24:55.690Z,1008.33
2018-01-15T00:25:36.290Z,1008.31
2018-01-15T00:26:16.786Z,1008.32
2018-01-15T00:26:57.350Z,1008.31
2018-01-15T00:27:37.835Z,1008.36
2018-01-15T00:28:18.362Z,1008.32
2018-01-15T00:28:58.924Z,1008.3
2018-01-15T00:29:39.499Z,1008.37
2018-01-15T00:30:20.031Z,1008.34
2018-01-15T00:31:00.637Z,1008.31
2018-01-15T00:31:41.148Z,1008.32
2018-01-15T00:32:21.703Z,1008.33
2018-01-15T00:33:02.233Z,1008.32
2018-01-15T00:33:42.818Z,1008.33
2018-01-15T00:34:23.338Z,1008.26
2018-01-15T00:35:03.879Z,1008.31
2018-01-15T00:35:44.420Z,1008.27
2018-01-15T00:36:24.942Z,1008.27
2018-01-15T00:37:05.542Z,1008.29
2018-01-15T00:37:46.073Z,1008.24
2018-01-15T00:38:26.606Z,1008.27
2018-01-15T00:39:07.133Z,1008.24
2018-01-15T00:39:47.691Z,1008.25
2018-01-15T00:40:28.170Z,1008.25
2018-01-15T00:41:08.760Z,1008.2
2018-01-15T00:41:49.277Z,1008.22
2018-01-15T00:42:29.844Z,1008.21
2018-01-15T00:43:10.343Z,1008.18
2018-01-15T00:43:50.881Z,1008.15
2018-01-15T00:44:31.420Z,1008.14
2018-01-15T00:45:11.909Z,1008.14
2018-01-15T00:45:52.672Z,1008.1
2018-01-15T00:46:33.070Z,1008.15
2018-01-15T00:47:13.593Z,1008.09
2018-01-15T00:47:54.173Z,1008.07
2018-01-15T00:48:34.914Z,1008.05
2018-01-15T00:49:15.471Z,1008.14
2018-01-15T00:49:56.005Z,1008.13
2018-01-15T00:50:36.572Z,1008.14
2018-01-15T00:51:17.063Z,1008.09
2018-01-15T00:51:57.619Z,1008.1
2018-01-15T00:52:38.166Z,1008.1
2018-01-15T00:53:19.036Z,1008.08
2018-01-15T00:53:59.783Z,1008.08
2018-01-15T00:54:40.378Z,1008.05
2018-01-15T00:55:20.896Z,1008.07
2018-01-15T00:56:01.417Z,1008.1
2018-01-15T00:56:41.974Z,1008.09
2018-01-15T00:57:22.486Z,1008.08
2018-01-15T00:58:02.976Z,1008.09
2018-01-15T00:58:43.493Z,1008.08
2018-01-15T00:59:24.170Z,1008.06
2018-01-15T01:00:05.680Z,1008.11
2018-01-15T01:00:46.212Z,1008.1
2018-01-15T01:01:26.743Z,1008.14
2018-01-15T01:02:07.279Z,1008.16
2018-01-15T01:02:47.815Z,1008.13
2018-01-15T01:03:28.387Z,1008.16
2018-01-15T01:04:09.751Z,1008.14
2018-01-15T01:04:50.591Z,1008.16
2018-01-15T01:05:31.548Z,1008.19
2018-01-15T01:06:12.091Z,1008.12
2018-01-15T01:06:52.644Z,1008.12
2018-01-15T01:07:33.156Z,1008.15
2018-01-15T01:08:13.671Z,1008.15
2018-01-15T01:08:54.636Z,1008.11
2018-01-15T01:09:35.249Z,1008.15
2018-01-15T01:10:15.770Z,1008.12
2018-01-15T01:10:56.437Z,1008.13
2018-01-15T01:11:37.001Z,1008.16
2018-01-15T01:12:17.519Z,1008.08
2018-01-15T01:12:57.989Z,1008.09
2018-01-15T01:13:38.532Z,1008.14
2018-01-15T01:14:20.333Z,1008.09
2018-01-15T01:15:00.841Z,1008.11
2018-01-15T01:15:41.357Z,1008.07
2018-01-15T01:16:21.906Z,1008.12
2018-01-15T01:17:02.408Z,1008.09
2018-01-15T01:17:42.907Z,1008.12
2018-01-15T01:18:23.491Z,1008.11
2018-01-15T01:19:03.990Z,1008.14
2018-01-15T01:19:45.011Z,1008.09
2018-01-15T01:20:25.555Z,1008.13
2018-01-15T01:21:06.086Z,1008.1
2018-01-15T01:21:46.691Z,1008.09
2018-01-15T01:22:27.202Z,1008.04
2018-01-15T01:23:07.729Z,1008.05
2018-01-15T01:23:48.274Z,1008.04
2018-01-15T01:24:28.816Z,1008.07
2018-01-15T01:25:10.113Z,1008.08
2018-01-15T01:25:50.639Z,1008.07
2018-01-15T01:26:31.037Z,1008.04
2018-01-15T01:27:11.617Z,1008.04
2018-01-15T01:27:52.090Z,1008.02
2018-01-15T01:28:32.643Z,1008.05
2018-01-15T01:29:13.160Z,1008.07
2018-01-15T01:29:53.675Z,1008.06
2018-01-15T01:30:34.210Z,1008.07
2018-01-15T01:31:14.742Z,1008.04
2018-01-15T01:31:55.303Z,1008.04
2018-01-15T01:32:35.783Z,1008.04
2018-01-15T01:33:16.346Z,1008.02
2018-01-15T01:33:56.896Z,1008
2018-01-15T01:34:37.416Z,1007.99
2018-01-15T01:35:18.010Z,1007.99
2018-01-15T01:35:58.561Z,1008.05
2018-01-15T01:36:39.142Z,1007.98
2018-01-15T01:37:19.599Z,1007.99
2018-01-15T01:38:00.136Z,1007.94
2018-01-15T01:38:40.687Z,1007.96
2018-01-15T01:39:21.201Z,1007.9
2018-01-15T01:40:01.711Z,1007.9
2018-01-15T01:40:42.303Z,1007.9
2018-01-15T01:41:22.808Z,1007.86
2018-01-15T01:42:03.301Z,1007.88
2018-01-15T01:42:43.818Z,1007.83
2018-01-15T01:43:24.416Z,1007.8
2018-01-15T01:44:05.009Z,1007.79
2018-01-15T01:44:45.504Z,1007.8
2018-01-15T01:45:26.005Z,1007.8
2018-01-15T01:46:06.568Z,1007.84
2018-01-15T01:46:47.080Z,1007.78
2018-01-15T01:47:28.536Z,1007.82
2018-01-15T01:48:09.092Z,1007.82
2018-01-15T01:48:49.622Z,1007.82
2018-01-15T01:49:30.185Z,1007.82
2018-01-15T01:50:10.733Z,1007.83
2018-01-15T01:50:51.274Z,1007.84
2018-01-15T01:51:31.793Z,1007.78
2018-01-15T01:52:12.317Z,1007.79
2018-01-15T01:52:52.832Z,1007.82
2018-01-15T01:53:33.452Z,1007.8
2018-01-15T01:54:13.957Z,1007.76
2018-01-15T01:54:54.460Z,1007.78
2018-01-15T01:55:35.002Z,1007.74
2018-01-15T01:56:15.511Z,1007.79
2018-01-15T01:56:56.059Z,1007.74
2018-01-15T01:57:36.628Z,1007.73
2018-01-15T01:58:19.729Z,1007.77
2018-01-15T01:59:00.522Z,1007.8
2018-01-15T01:59:41.079Z,1007.79
2018-01-15T02:00:21.621Z,1007.79
2018-01-15T02:01:02.134Z,1007.78
2018-01-15T02:01:42.942Z,1007.74
2018-01-15T02:02:23.802Z,1007.75
2018-01-15T02:03:04.425Z,1007.75
2018-01-15T02:03:44.965Z,1007.74
2018-01-15T02:04:25.471Z,1007.67
2018-01-15T02:05:06.020Z,1007.71
2018-01-15T02:05:46.549Z,1007.61
2018-01-15T02:06:27.274Z,1007.66
2018-01-15T02:07:08.784Z,1007.61
2018-01-15T02:07:49.499Z,1007.59
2018-01-15T02:08:29.831Z,1007.59
2018-01-15T02:09:10.350Z,1007.55
2018-01-15T02:09:51.114Z,1007.55
2018-01-15T02:10:31.610Z,1007.57
2018-01-15T02:11:12.089Z,1007.57
2018-01-15T02:11:52.983Z,1007.55
2018-01-15T02:12:33.568Z,1007.54
2018-01-15T02:13:14.476Z,1007.55
2018-01-15T02:13:55.053Z,1007.56
2018-01-15T02:14:35.566Z,1007.55
2018-01-15T02:15:16.120Z,1007.55
2018-01-15T02:15:56.616Z,1007.55
2018-01-15T02:16:37.517Z,1007.56
2018-01-15T02:17:19.021Z,1007.5
2018-01-15T02:17:59.542Z,1007.54
2018-01-15T02:18:40.075Z,1007.5
2018-01-15T02:19:20.598Z,1007.51
2018-01-15T02:20:01.163Z,1007.46
2018-01-15T02:20:41.655Z,1007.41
2018-01-15T02:21:22.204Z,1007.39
2018-01-15T02:22:02.893Z,1007.36
2018-01-15T02:22:43.474Z,1007.34
2018-01-15T02:23:24.220Z,1007.32
2018-01-15T02:24:04.793Z,1007.29
2018-01-15T02:24:45.279Z,1007.32
2018-01-15T02:25:25.823Z,1007.33
2018-01-15T02:26:06.400Z,1007.3
2018-01-15T02:26:46.892Z,1007.34
2018-01-15T02:27:29.045Z,1007.33
2018-01-15T02:28:09.280Z,1007.37
2018-01-15T02:28:49.821Z,1007.38
2018-01-15T02:29:30.349Z,1007.38
2018-01-15T02:30:10.904Z,1007.34
2018-01-15T02:30:51.380Z,1007.34
2018-01-15T02:31:31.953Z,1007.36
2018-01-15T02:32:12.469Z,1007.37
2018-01-15T02:32:53.655Z,1007.32
2018-01-15T02:33:34.754Z,1007.4
2018-01-15T02:34:15.355Z,1007.37
2018-01-15T02:34:55.809Z,1007.38
2018-01-15T02:35:36.335Z,1007.4
2018-01-15T02:36:16.884Z,1007.48
2018-01-15T02:36:58.126Z,1007.52
2018-01-15T02:37:39.012Z,1007.55
2018-01-15T02:38:19.545Z,1007.6
2018-01-15T02:39:00.117Z,1007.59
2018-01-15T02:39:40.691Z,1007.61
2018-01-15T02:40:21.199Z,1007.69
2018-01-15T02:41:01.765Z,1007.67
2018-01-15T02:41:42.307Z,1007.64
2018-01-15T02:42:22.824Z,1007.62
2018-01-15T02:43:03.402Z,1007.64
2018-01-15T02:45:02.229Z,1007.65
2018-01-15T02:45:44.643Z,1007.69
2018-01-15T02:46:25.194Z,1007.66
2018-01-15T02:47:05.724Z,1007.64
2018-01-15T02:47:46.242Z,1007.63
2018-01-15T02:48:26.783Z,1007.61
2018-01-15T02:49:07.303Z,1007.62
2018-01-15T02:49:47.850Z,1007.59
2018-01-15T02:50:28.405Z,1007.61
2018-01-15T02:51:10.016Z,1007.61
2018-01-15T02:51:51.864Z,1007.66
2018-01-15T02:52:32.404Z,1007.67
2018-01-15T02:53:12.903Z,1007.67
2018-01-15T02:53:53.417Z,1007.64
2018-01-15T02:54:35.459Z,1007.65
2018-01-15T02:55:15.981Z,1007.59
2018-01-15T02:55:56.796Z,1007.59
2018-01-15T02:56:37.060Z,1007.53
2018-01-15T02:57:17.597Z,1007.52
2018-01-15T02:57:58.145Z,1007.51
2018-01-15T02:58:38.647Z,1007.51
2018-01-15T02:59:20.054Z,1007.47
2018-01-15T03:00:00.897Z,1007.48
2018-01-15T03:00:41.565Z,1007.46
2018-01-15T03:01:22.147Z,1007.43
2018-01-15T03:02:02.673Z,1007.37
2018-01-15T03:02:43.213Z,1007.35
2018-01-15T03:03:23.712Z,1007.32
2018-01-15T03:04:04.310Z,1007.34
2018-01-15T03:04:44.837Z,1007.29
2018-01-15T03:05:25.348Z,1007.29
2018-01-15T03:06:05.859Z,1007.33
2018-01-15T03:06:47.716Z,1007.33
2018-01-15T03:07:27.546Z,1007.32
2018-01-15T03:08:09.245Z,1007.31
2018-01-15T03:08:49.854Z,1007.31
2018-01-15T03:09:30.633Z,1007.28
2018-01-15T03:10:11.186Z,1007.28
2018-01-15T03:10:51.690Z,1007.28
2018-01-15T03:11:32.189Z,1007.26
2018-01-15T03:12:12.709Z,1007.19
2018-01-15T03:12:53.677Z,1007.22
2018-01-15T03:13:34.472Z,1007.23
2018-01-15T03:14:15.049Z,1007.16
2018-01-15T03:14:55.538Z,1007.17
2018-01-15T03:15:36.049Z,1007.13
2018-01-15T03:16:16.592Z,1007.12
2018-01-15T03:16:57.315Z,1007.12
2018-01-15T03:17:38.106Z,1007.13
2018-01-15T03:18:19.044Z,1007.13
2018-01-15T03:18:59.522Z,1007.11
2018-01-15T03:19:40.059Z,1007.14
2018-01-15T03:20:20.548Z,1007.15
2018-01-15T03:21:01.071Z,1007.15
2018-01-15T03:21:41.670Z,1007.21
2018-01-15T03:22:22.184Z,1007.2
2018-01-15T03:23:02.665Z,1007.21
2018-01-15T03:23:44.234Z,1007.21
2018-01-15T03:24:24.780Z,1007.17
2018-01-15T03:25:05.388Z,1007.18
2018-01-15T03:25:45.872Z,1007.16
2018-01-15T03:26:26.548Z,1007.16
2018-01-15T03:27:07.066Z,1007.21
2018-01-15T03:27:47.703Z,1007.19
2018-01-15T03:28:28.655Z,1007.12
2018-01-15T03:29:09.401Z,1007.1
2018-01-15T03:29:49.921Z,1007.14
2018-01-15T03:30:30.463Z,1007.14
2018-01-15T03:31:11.023Z,1007.14
2018-01-15T03:31:51.550Z,1007.11
2018-01-15T03:32:32.336Z,1007.09
2018-01-15T03:33:12.832Z,1007.08
2018-01-15T03:33:53.584Z,1007.05
2018-01-15T03:34:34.439Z,1007.1
2018-01-15T03:35:15.040Z,1007.05
2018-01-15T03:35:56.002Z,1007.06
2018-01-15T03:36:36.661Z,1007.05
2018-01-15T03:37:17.170Z,1007.02
2018-01-15T03:37:57.725Z,1006.99
2018-01-15T03:38:38.474Z,1006.97
2018-01-15T03:39:20.698Z,1006.99
2018-01-15T03:40:00.639Z,1007.01
2018-01-15T03:40:41.211Z,1007.01
2018-01-15T03:41:21.831Z,1007.02
2018-01-15T03:42:02.432Z,1007.07
2018-01-15T03:42:42.943Z,1007.09
2018-01-15T03:43:24.111Z,1007.09
2018-01-15T03:44:04.662Z,1007.09
2018-01-15T03:44:45.199Z,1007.06
2018-01-15T03:45:25.790Z,1007.05
2018-01-15T03:46:06.330Z,1007.02
2018-01-15T03:46:46.804Z,1007.06
2018-01-15T03:47:27.311Z,1006.99
2018-01-15T03:48:08.286Z,1006.97
2018-01-15T03:48:48.905Z,1006.97
2018-01-15T03:49:29.378Z,1006.97
2018-01-15T03:50:09.924Z,1006.91
2018-01-15T03:50:50.458Z,1006.97
2018-01-15T03:51:31.000Z,1006.95
2018-01-15T03:52:11.527Z,1006.98
2018-01-15T03:52:52.012Z,1006.95
2018-01-15T03:53:32.556Z,1006.95
2018-01-15T03:54:13.073Z,1006.98
2018-01-15T03:54:53.662Z,1006.89
2018-01-15T03:55:34.150Z,1006.9
2018-01-15T03:56:14.639Z,1006.9
2018-01-15T03:56:55.164Z,1006.81
2018-01-15T03:57:35.725Z,1006.78
2018-01-15T03:58:16.278Z,1006.82
2018-01-15T03:58:56.811Z,1006.78
2018-01-15T03:59:37.329Z,1006.76
2018-01-15T04:00:17.886Z,1006.79
2018-01-15T04:00:58.406Z,1006.77
2018-01-15T04:01:38.913Z,1006.74
2018-01-15T04:02:19.423Z,1006.8
2018-01-15T04:02:59.967Z,1006.76
2018-01-15T04:03:40.521Z,1006.74
2018-01-15T04:04:21.019Z,1006.77
2018-01-15T04:05:01.528Z,1006.75
2018-01-15T04:05:42.084Z,1006.76
2018-01-15T04:06:22.626Z,1006.75
2018-01-15T04:07:03.083Z,1006.7
2018-01-15T04:07:43.670Z,1006.7
2018-01-15T04:08:24.200Z,1006.69
2018-01-15T04:09:04.761Z,1006.65
2018-01-15T04:09:45.302Z,1006.62
2018-01-15T04:10:25.805Z,1006.66
2018-01-15T04:11:06.348Z,1006.68
2018-01-15T04:11:46.883Z,1006.61
2018-01-15T04:12:27.467Z,1006.63
2018-01-15T04:13:07.969Z,1006.62
2018-01-15T04:13:48.511Z,1006.59
2018-01-15T04:14:29.002Z,1006.58
2018-01-15T04:15:09.563Z,1006.58
2018-01-15T04:15:50.136Z,1006.54
2018-01-15T04:16:30.634Z,1006.5
2018-01-15T04:17:11.230Z,1006.49
2018-01-15T04:17:51.732Z,1006.46
2018-01-15T04:18:32.263Z,1006.43
2018-01-15T04:19:12.732Z,1006.45
2018-01-15T04:19:53.295Z,1006.42
2018-01-15T04:20:33.823Z,1006.45
2018-01-15T04:21:14.311Z,1006.46
2018-01-15T04:21:54.834Z,1006.46
2018-01-15T04:22:35.428Z,1006.47
2018-01-15T04:23:15.913Z,1006.43
2018-01-15T04:23:56.451Z,1006.43
2018-01-15T04:24:37.006Z,1006.42
2018-01-15T04:25:17.514Z,1006.47
2018-01-15T04:25:58.066Z,1006.47
2018-01-15T04:26:38.596Z,1006.47
2018-01-15T04:27:19.130Z,1006.48
2018-01-15T04:27:59.672Z,1006.42
2018-01-15T04:28:40.178Z,1006.41
2018-01-15T04:29:20.715Z,1006.43
2018-01-15T04:30:01.235Z,1006.42
2018-01-15T04:30:41.782Z,1006.44
2018-01-15T04:31:22.318Z,1006.49
2018-01-15T04:32:02.843Z,1006.43
2018-01-15T04:32:43.400Z,1006.44
2018-01-15T04:33:23.917Z,1006.42
2018-01-15T04:34:04.436Z,1006.39
2018-01-15T04:34:44.972Z,1006.39
2018-01-15T04:35:25.510Z,1006.4
2018-01-15T04:36:06.010Z,1006.36
2018-01-15T04:36:46.529Z,1006.37
2018-01-15T04:37:27.086Z,1006.35
2018-01-15T04:38:07.616Z,1006.34
2018-01-15T04:38:48.134Z,1006.3
2018-01-15T04:39:28.679Z,1006.32
2018-01-15T04:40:09.185Z,1006.33
2018-01-15T04:40:49.696Z,1006.27
2018-01-15T04:41:30.223Z,1006.24
2018-01-15T04:42:10.771Z,1006.23
2018-01-15T04:42:51.335Z,1006.25
2018-01-15T04:43:31.818Z,1006.19
2018-01-15T04:44:12.343Z,1006.27
2018-01-15T04:44:52.870Z,1006.2
2018-01-15T04:45:33.375Z,1006.18
2018-01-15T04:46:13.913Z,1006.19
2018-01-15T04:46:54.430Z,1006.24
2018-01-15T04:47:34.948Z,1006.21
2018-01-15T04:48:15.501Z,1006.2
2018-01-15T04:48:56.063Z,1006.21
2018-01-15T04:49:36.549Z,1006.24
2018-01-15T04:50:17.085Z,1006.21
2018-01-15T04:50:57.664Z,1006.18
2018-01-15T04:51:38.146Z,1006.23
2018-01-15T04:52:18.678Z,1006.19
2018-01-15T04:52:59.209Z,1006.21
2018-01-15T04:53:39.752Z,1006.22
2018-01-15T04:54:20.294Z,1006.24
2018-01-15T04:55:00.813Z,1006.24
2018-01-15T04:55:41.361Z,1006.19
2018-01-15T04:56:21.910Z,1006.19
2018-01-15T04:57:02.459Z,1006.2
2018-01-15T04:57:42.996Z,1006.19
2018-01-15T04:58:23.561Z,1006.13
2018-01-15T04:59:04.088Z,1006.17
2018-01-15T04:59:44.679Z,1006.17
2018-01-15T05:00:25.210Z,1006.16
2018-01-15T05:01:05.755Z,1006.15
2018-01-15T05:01:46.281Z,1006.11
2018-01-15T05:02:26.830Z,1006.09
2018-01-15T05:03:07.334Z,1006.11
2018-01-15T05:03:47.828Z,1006.09
2018-01-15T05:04:28.387Z,1006.07
2018-01-15T05:05:08.958Z,1006.08
2018-01-15T05:05:49.518Z,1006.07
2018-01-15T05:06:30.027Z,1006.08
2018-01-15T05:07:10.558Z,1006.09
2018-01-15T05:07:51.058Z,1006.09
2018-01-15T05:08:31.614Z,1006.09
2018-01-15T05:09:12.086Z,1006.03
2018-01-15T05:09:52.618Z,1006.06
2018-01-15T05:10:33.148Z,1006.06
2018-01-15T05:11:13.688Z,1006.05
2018-01-15T05:11:54.201Z,1006
2018-01-15T05:12:34.733Z,1006
2018-01-15T05:13:15.288Z,1005.99
2018-01-15T05:13:55.824Z,1006.04
2018-01-15T05:14:36.339Z,1006.03
2018-01-15T05:15:16.906Z,1006.01
2018-01-15T05:15:57.440Z,1006.01
2018-01-15T05:16:38.007Z,1006.01
2018-01-15T05:17:18.512Z,1005.95
2018-01-15T05:17:59.039Z,1005.91
2018-01-15T05:18:39.588Z,1005.94
2018-01-15T05:19:20.136Z,1005.9
2018-01-15T05:20:00.672Z,1005.91
2018-01-15T05:20:41.216Z,1005.94
2018-01-15T05:21:21.737Z,1006
2018-01-15T05:22:02.224Z,1005.98
2018-01-15T05:22:42.774Z,1005.98
2018-01-15T05:23:23.515Z,1006.01
2018-01-15T05:24:04.040Z,1005.97
2018-01-15T05:24:44.520Z,1005.95
2018-01-15T05:25:25.063Z,1006
2018-01-15T05:26:05.594Z,1006
2018-01-15T05:26:46.139Z,1005.97
2018-01-15T05:27:26.700Z,1005.99
2018-01-15T05:28:07.219Z,1006.04
2018-01-15T05:28:47.721Z,1006.04
2018-01-15T05:29:28.242Z,1006.03
2018-01-15T05:30:08.746Z,1005.99
2018-01-15T05:30:49.320Z,1006.05
2018-01-15T05:31:29.868Z,1006.05
2018-01-15T05:32:10.360Z,1006.04
2018-01-15T05:32:50.887Z,1006.13
2018-01-15T05:33:31.450Z,1006.05
2018-01-15T05:34:11.947Z,1006.04
2018-01-15T05:34:52.469Z,1006.07
2018-01-15T05:35:33.023Z,1006.09
2018-01-15T05:36:13.574Z,1006.06
2018-01-15T05:36:54.114Z,1006.08
2018-01-15T05:37:34.641Z,1006.04
2018-01-15T05:38:15.211Z,1006.07
2018-01-15T05:38:55.755Z,1006.06
2018-01-15T05:39:36.287Z,1006.07
2018-01-15T05:40:16.794Z,1006.03
2018-01-15T05:40:57.349Z,1006.06
2018-01-15T05:41:37.853Z,1006.07
2018-01-15T05:42:18.399Z,1006.07
2018-01-15T05:42:58.910Z,1006.11
2018-01-15T05:43:39.474Z,1006.17
2018-01-15T05:44:20.032Z,1006.14
2018-01-15T05:45:00.551Z,1006.15
2018-01-15T05:45:41.117Z,1006.17
2018-01-15T05:46:21.712Z,1006.16
2018-01-15T05:47:02.192Z,1006.23
2018-01-15T05:47:42.722Z,1006.16
2018-01-15T16:08:55.389Z,994.92
2018-01-15T16:09:35.945Z,994.91
2018-01-15T16:10:16.484Z,994.98
2018-01-15T16:10:57.039Z,994.94
2018-01-15T16:11:37.626Z,994.89
2018-01-15T16:12:18.147Z,994.86
2018-01-15T16:12:58.812Z,994.84
2018-01-15T16:13:39.382Z,994.86
2018-01-15T16:14:20.105Z,994.89
2018-01-15T16:15:00.665Z,994.83
2018-01-15T16:15:41.150Z,994.81
2018-01-15T16:16:21.694Z,994.87
2018-01-15T16:17:02.217Z,994.93
2018-01-15T16:17:42.749Z,994.92
2018-01-15T16:18:23.291Z,994.83
2018-01-15T16:19:04.387Z,994.82
2018-01-15T16:19:44.934Z,994.88
2018-01-15T16:20:25.468Z,994.85
2018-01-15T16:21:06.013Z,994.87
2018-01-15T16:21:46.554Z,994.82
2018-01-15T16:22:27.082Z,994.88
2018-01-15T16:23:07.628Z,994.8
2018-01-15T16:23:48.123Z,994.79
2018-01-15T16:24:28.652Z,994.76
2018-01-15T16:25:09.169Z,994.81
2018-01-15T16:25:49.731Z,994.76
2018-01-15T16:26:30.859Z,994.72
2018-01-15T16:27:10.805Z,994.73
2018-01-15T16:27:51.346Z,994.71
2018-01-15T16:28:31.847Z,994.72
2018-01-15T16:29:12.513Z,994.66
2018-01-15T16:29:52.923Z,994.71
2018-01-15T16:30:33.448Z,994.66
2018-01-15T16:31:13.956Z,994.57
2018-01-15T16:31:54.506Z,994.56
2018-01-15T16:32:35.041Z,994.58
2018-01-15T16:33:15.591Z,994.59
2018-01-15T16:33:56.155Z,994.48
2018-01-15T16:34:36.752Z,994.49
2018-01-15T16:35:17.277Z,994.48
2018-01-15T16:35:57.818Z,994.44
2018-01-15T16:36:38.315Z,994.43
2018-01-15T16:37:18.823Z,994.44
2018-01-15T16:37:59.356Z,994.4
2018-01-15T16:38:39.888Z,994.38
2018-01-15T16:39:20.534Z,994.37
2018-01-15T16:40:01.047Z,994.3
2018-01-15T16:40:41.546Z,994.25
2018-01-15T16:41:22.341Z,994.28
2018-01-15T16:42:02.815Z,994.26
2018-01-15T16:42:43.334Z,994.29
2018-01-15T16:43:23.858Z,994.21
2018-01-15T16:44:04.420Z,994.19
2018-01-15T16:44:44.967Z,994.21
2018-01-15T16:45:25.800Z,994.11
2018-01-15T16:46:06.284Z,994.15
2018-01-15T16:46:46.829Z,994.09
2018-01-15T16:47:27.344Z,994.06
2018-01-15T16:48:07.911Z,994.06
2018-01-15T16:48:48.665Z,994.02
2018-01-15T16:49:29.866Z,994.02
2018-01-15T16:50:10.413Z,994.09
2018-01-15T16:50:50.998Z,993.93
2018-01-15T16:51:31.535Z,993.97
2018-01-15T16:52:12.152Z,993.97
2018-01-15T16:52:52.807Z,993.9
2018-01-15T16:53:33.341Z,993.9
2018-01-15T16:54:13.878Z,993.92
2018-01-15T16:54:54.537Z,993.82
2018-01-15T16:55:35.032Z,993.76
2018-01-15T16:56:15.604Z,993.8
2018-01-15T16:56:56.114Z,993.79
2018-01-15T16:57:36.666Z,993.67
2018-01-15T16:58:17.190Z,993.7
2018-01-15T16:58:57.731Z,993.64
2018-01-15T16:59:38.359Z,993.75
2018-01-15T17:00:18.897Z,993.68
2018-01-15T17:00:59.429Z,993.56
2018-01-15T17:01:40.006Z,993.57
2018-01-15T17:02:20.554Z,993.48
2018-01-15T17:03:01.124Z,993.53
2018-01-15T17:03:41.707Z,993.56
2018-01-15T17:04:22.289Z,993.48
2018-01-15T17:05:02.847Z,993.48
2018-01-15T17:05:43.445Z,993.47
2018-01-15T17:06:23.975Z,993.44
2018-01-15T17:07:04.581Z,993.42
2018-01-15T17:07:45.070Z,993.41
2018-01-15T17:08:25.566Z,993.43
2018-01-15T17:09:06.095Z,993.35
2018-01-15T17:09:46.652Z,993.35
2018-01-15T17:10:27.159Z,993.34
2018-01-15T17:11:07.725Z,993.32
2018-01-15T17:11:48.308Z,993.19
2018-01-15T17:12:28.777Z,993.23
2018-01-15T17:13:09.418Z,993.22
2018-01-15T17:13:49.906Z,993.18
2018-01-15T17:14:30.529Z,993.1
2018-01-15T17:15:11.082Z,993.2
2018-01-15T17:15:51.640Z,993.13
2018-01-15T17:16:32.136Z,993.14
2018-01-15T17:17:12.759Z,993.09
2018-01-15T17:17:53.253Z,993.06
2018-01-15T17:18:33.799Z,993.03
2018-01-15T17:19:14.327Z,993.07
2018-01-15T17:19:54.843Z,993.08
2018-01-15T17:20:35.386Z,993.06
2018-01-15T17:21:15.953Z,993.07
2018-01-15T17:21:56.546Z,993
2018-01-15T17:22:37.101Z,993.06
2018-01-15T17:23:17.597Z,993.06
2018-01-15T17:23:58.135Z,993.06
2018-01-15T17:24:38.633Z,993.12
2018-01-15T17:25:19.141Z,993.13
2018-01-15T17:25:59.692Z,993.07
2018-01-15T17:26:40.230Z,993.07
2018-01-15T17:27:20.823Z,993.04
2018-01-15T17:28:01.335Z,993.1
2018-01-15T17:28:41.880Z,993.05
2018-01-15T17:29:22.429Z,993.07
2018-01-15T17:30:03.751Z,993.04
2018-01-15T17:30:44.269Z,992.99
2018-01-15T17:31:24.817Z,992.93
2018-01-15T17:32:05.403Z,992.98
2018-01-15T17:32:46.017Z,993.04
2018-01-15T17:33:26.470Z,993
2018-01-15T17:34:07.049Z,992.93
2018-01-15T17:34:47.595Z,992.94
2018-01-15T17:35:28.179Z,992.95
2018-01-15T17:36:08.692Z,992.98
2018-01-15T17:36:49.214Z,992.96
2018-01-15T17:37:29.770Z,992.94
2018-01-15T17:38:10.358Z,992.9
2018-01-15T17:38:50.856Z,992.93
2018-01-15T17:39:31.556Z,992.87
2018-01-15T17:40:11.941Z,992.82
2018-01-15T17:40:52.437Z,992.84
2018-01-15T17:41:33.060Z,992.81
2018-01-15T17:42:13.527Z,992.71
2018-01-15T17:42:54.072Z,992.73
2018-01-15T17:43:34.658Z,992.74
2018-01-15T17:44:15.180Z,992.73
2018-01-15T17:44:55.656Z,992.74
2018-01-15T17:45:36.143Z,992.66
2018-01-15T17:46:16.760Z,992.7
2018-01-15T17:46:57.317Z,992.75
2018-01-15T17:47:37.984Z,992.7
2018-01-15T17:48:18.519Z,992.7
2018-01-15T17:48:58.972Z,992.78
2018-01-15T17:49:39.483Z,992.74
2018-01-15T17:50:20.040Z,992.75
2018-01-15T17:51:00.584Z,992.77
2018-01-15T17:51:41.083Z,992.68
2018-01-15T17:52:21.720Z,992.74
2018-01-15T17:53:02.166Z,992.71
2018-01-15T17:53:42.701Z,992.67
2018-01-15T17:54:23.211Z,992.71
2018-01-15T17:55:03.804Z,992.69
2018-01-15T17:55:44.318Z,992.65
2018-01-15T17:56:24.799Z,992.68
2018-01-15T17:57:05.309Z,992.63
2018-01-15T17:57:45.880Z,992.69
2018-01-15T17:58:26.371Z,992.63
2018-01-15T17:59:06.904Z,992.66
2018-01-15T17:59:47.476Z,992.71
2018-01-15T18:00:28.055Z,992.68
2018-01-15T18:01:08.591Z,992.74
2018-01-15T18:01:49.056Z,992.75
2018-01-15T18:02:29.609Z,992.76
2018-01-15T18:03:10.110Z,992.75
2018-01-15T18:03:50.624Z,992.73
2018-01-15T18:04:31.257Z,992.73
2018-01-15T18:05:11.753Z,992.72
2018-01-15T18:05:52.341Z,992.68
2018-01-15T18:06:32.893Z,992.7
2018-01-15T18:07:13.448Z,992.68
2018-01-15T18:07:54.010Z,992.69
2018-01-15T18:08:34.506Z,992.71
2018-01-15T18:09:15.111Z,992.62
2018-01-15T18:09:55.740Z,992.67
2018-01-15T18:10:36.520Z,992.65
2018-01-15T18:11:17.069Z,992.67
2018-01-15T18:11:57.594Z,992.65
2018-01-15T18:12:38.105Z,992.64
2018-01-15T18:13:18.641Z,992.53
2018-01-15T18:13:59.273Z,992.54
2018-01-15T18:14:39.835Z,992.48
2018-01-15T18:15:20.342Z,992.47
2018-01-15T18:16:00.909Z,992.44
2018-01-15T18:16:41.489Z,992.45
2018-01-15T18:17:21.983Z,992.43
2018-01-15T18:18:02.503Z,992.49
2018-01-15T18:18:43.063Z,992.44
2018-01-15T18:19:23.593Z,992.42
2018-01-15T18:20:04.209Z,992.47
2018-01-15T18:20:44.806Z,992.48
2018-01-15T18:21:25.355Z,992.43
2018-01-15T18:22:05.958Z,992.42
2018-01-15T18:22:46.540Z,992.39
2018-01-15T18:23:27.083Z,992.4
2018-01-15T18:24:07.707Z,992.33
2018-01-15T18:24:48.151Z,992.4
2018-01-15T18:25:28.761Z,992.37
2018-01-15T18:26:09.281Z,992.33
2018-01-15T18:26:49.857Z,992.33
2018-01-15T18:27:30.434Z,992.32
2018-01-15T18:28:10.993Z,992.37
2018-01-15T18:28:51.614Z,992.31
2018-01-15T18:29:32.175Z,992.2
2018-01-15T18:30:12.727Z,992.26
2018-01-15T18:30:53.312Z,992.19
2018-01-15T18:31:33.834Z,992.28
2018-01-15T18:32:14.363Z,992.25
2018-01-15T18:32:55.225Z,992.26
2018-01-15T18:33:35.796Z,992.25
2018-01-15T18:34:16.392Z,992.27
2018-01-15T18:34:57.001Z,992.21
2018-01-15T18:35:37.497Z,992.25
2018-01-15T18:36:18.130Z,992.21
2018-01-15T18:36:58.639Z,992.17
2018-01-15T18:37:39.854Z,992.13
2018-01-15T18:39:33.235Z,992.2
2018-01-15T18:40:13.849Z,992.17
2018-01-15T18:40:54.364Z,992.11